sensor_id;sensor_type;location;lat;lon;timestamp;P1;durP1;ratioP1;P2;durP2;ratioP2
7965;SDS011;4028;43.272;26.932;2023-04-24T00:01:38;5.90;;;5.30;;
7965;SDS011;4028;43.272;26.932;2023-04-24T00:04:04;8.63;;;5.10;;
7965;SDS011;4028;43.272;26.932;2023-04-24T00:06:31;5.50;;;5.00;;
7965;SDS011;4028;43.272;26.932;2023-04-24T00:09:01;7.50;;;5.20;;
7965;SDS011;4028;43.272;26.932;2023-04-24T00:11:28;8.47;;;5.17;;
7965;SDS011;4028;43.272;26.932;2023-04-24T00:13:54;7.97;;;5.10;;
7965;SDS011;4028;43.272;26.932;2023-04-24T00:16:21;6.97;;;5.60;;
7965;SDS011;4028;43.272;26.932;2023-04-24T00:18:47;6.90;;;5.23;;
7965;SDS011;4028;43.272;26.932;2023-04-24T00:21:13;8.30;;;5.53;;
7965;SDS011;4028;43.272;26.932;2023-04-24T00:23:39;8.33;;;6.13;;
7965;SDS011;4028;43.272;26.932;2023-04-24T00:26:05;7.83;;;6.43;;
7965;SDS011;4028;43.272;26.932;2023-04-24T00:28:30;7.40;;;5.77;;
7965;SDS011;4028;43.272;26.932;2023-04-24T00:30:56;6.40;;;5.00;;
7965;SDS011;4028;43.272;26.932;2023-04-24T00:33:21;6.87;;;6.17;;
7965;SDS011;4028;43.272;26.932;2023-04-24T00:35:47;6.90;;;6.20;;
7965;SDS011;4028;43.272;26.932;2023-04-24T00:38:12;10.13;;;6.83;;
7965;SDS011;4028;43.272;26.932;2023-04-24T00:40:38;8.37;;;7.17;;
7965;SDS011;4028;43.272;26.932;2023-04-24T00:43:03;8.13;;;6.87;;
7965;SDS011;4028;43.272;26.932;2023-04-24T00:45:29;7.80;;;6.97;;
7965;SDS011;4028;43.272;26.932;2023-04-24T00:47:56;8.33;;;7.27;;
7965;SDS011;4028;43.272;26.932;2023-04-24T00:50:23;8.47;;;6.83;;
7965;SDS011;4028;43.272;26.932;2023-04-24T00:52:49;9.03;;;6.73;;
7965;SDS011;4028;43.272;26.932;2023-04-24T00:55:15;13.30;;;6.63;;
7965;SDS011;4028;43.272;26.932;2023-04-24T00:57:41;7.13;;;5.97;;
7965;SDS011;4028;43.272;26.932;2023-04-24T01:00:07;10.30;;;6.50;;
7965;SDS011;4028;43.272;26.932;2023-04-24T01:02:35;11.40;;;7.13;;
7965;SDS011;4028;43.272;26.932;2023-04-24T01:05:05;7.57;;;6.73;;
7965;SDS011;4028;43.272;26.932;2023-04-24T01:07:32;8.63;;;6.47;;
7965;SDS011;4028;43.272;26.932;2023-04-24T01:09:58;11.07;;;6.30;;
7965;SDS011;4028;43.272;26.932;2023-04-24T01:12:23;9.63;;;6.33;;
7965;SDS011;4028;43.272;26.932;2023-04-24T01:14:49;9.20;;;6.33;;
7965;SDS011;4028;43.272;26.932;2023-04-24T01:17:14;6.73;;;6.07;;
7965;SDS011;4028;43.272;26.932;2023-04-24T01:19:40;8.30;;;5.77;;
7965;SDS011;4028;43.272;26.932;2023-04-24T01:22:10;9.80;;;6.30;;
7965;SDS011;4028;43.272;26.932;2023-04-24T01:24:37;7.80;;;5.50;;
7965;SDS011;4028;43.272;26.932;2023-04-24T01:27:03;10.90;;;6.07;;
7965;SDS011;4028;43.272;26.932;2023-04-24T01:29:29;7.03;;;5.93;;
7965;SDS011;4028;43.272;26.932;2023-04-24T01:31:55;8.87;;;6.50;;
7965;SDS011;4028;43.272;26.932;2023-04-24T01:34:20;6.80;;;6.03;;
7965;SDS011;4028;43.272;26.932;2023-04-24T01:36:46;8.47;;;6.40;;
7965;SDS011;4028;43.272;26.932;2023-04-24T01:39:13;14.93;;;6.93;;
7965;SDS011;4028;43.272;26.932;2023-04-24T01:41:38;6.57;;;5.87;;
7965;SDS011;4028;43.272;26.932;2023-04-24T01:44:04;8.47;;;5.77;;
7965;SDS011;4028;43.272;26.932;2023-04-24T01:46:29;8.57;;;5.57;;
7965;SDS011;4028;43.272;26.932;2023-04-24T01:48:56;10.23;;;5.50;;
7965;SDS011;4028;43.272;26.932;2023-04-24T01:51:24;6.93;;;5.40;;
7965;SDS011;4028;43.272;26.932;2023-04-24T01:53:50;8.43;;;5.70;;
7965;SDS011;4028;43.272;26.932;2023-04-24T01:56:15;10.57;;;5.63;;
7965;SDS011;4028;43.272;26.932;2023-04-24T01:58:41;9.47;;;6.10;;
7965;SDS011;4028;43.272;26.932;2023-04-24T02:01:08;8.10;;;5.07;;
7965;SDS011;4028;43.272;26.932;2023-04-24T02:03:33;9.53;;;6.10;;
7965;SDS011;4028;43.272;26.932;2023-04-24T02:05:59;12.10;;;7.80;;
7965;SDS011;4028;43.272;26.932;2023-04-24T02:08:24;10.40;;;8.73;;
7965;SDS011;4028;43.272;26.932;2023-04-24T02:10:50;11.10;;;9.47;;
7965;SDS011;4028;43.272;26.932;2023-04-24T02:13:16;15.90;;;9.77;;
7965;SDS011;4028;43.272;26.932;2023-04-24T02:15:41;18.40;;;12.13;;
7965;SDS011;4028;43.272;26.932;2023-04-24T02:18:07;21.50;;;14.20;;
7965;SDS011;4028;43.272;26.932;2023-04-24T02:20:32;16.77;;;12.60;;
7965;SDS011;4028;43.272;26.932;2023-04-24T02:23:00;14.50;;;11.30;;
7965;SDS011;4028;43.272;26.932;2023-04-24T02:25:26;12.57;;;10.37;;
7965;SDS011;4028;43.272;26.932;2023-04-24T02:27:51;11.40;;;9.83;;
7965;SDS011;4028;43.272;26.932;2023-04-24T02:30:17;11.37;;;8.63;;
7965;SDS011;4028;43.272;26.932;2023-04-24T02:32:42;9.07;;;7.27;;
7965;SDS011;4028;43.272;26.932;2023-04-24T02:35:08;10.40;;;6.70;;
7965;SDS011;4028;43.272;26.932;2023-04-24T02:37:33;7.50;;;6.50;;
7965;SDS011;4028;43.272;26.932;2023-04-24T02:39:59;10.70;;;6.43;;
7965;SDS011;4028;43.272;26.932;2023-04-24T02:42:24;8.53;;;6.37;;
7965;SDS011;4028;43.272;26.932;2023-04-24T02:44:50;8.43;;;6.00;;
7965;SDS011;4028;43.272;26.932;2023-04-24T02:47:16;7.83;;;6.07;;
7965;SDS011;4028;43.272;26.932;2023-04-24T02:49:41;6.60;;;5.90;;
7965;SDS011;4028;43.272;26.932;2023-04-24T02:52:07;9.97;;;6.33;;
7965;SDS011;4028;43.272;26.932;2023-04-24T02:54:32;11.33;;;6.43;;
7965;SDS011;4028;43.272;26.932;2023-04-24T02:56:58;12.00;;;6.60;;
7965;SDS011;4028;43.272;26.932;2023-04-24T02:59:23;11.90;;;6.73;;
7965;SDS011;4028;43.272;26.932;2023-04-24T03:01:52;12.93;;;6.73;;
7965;SDS011;4028;43.272;26.932;2023-04-24T03:04:17;13.57;;;6.67;;
7965;SDS011;4028;43.272;26.932;2023-04-24T03:06:45;10.93;;;6.40;;
7965;SDS011;4028;43.272;26.932;2023-04-24T03:09:11;11.63;;;6.30;;
7965;SDS011;4028;43.272;26.932;2023-04-24T03:11:36;7.80;;;6.17;;
7965;SDS011;4028;43.272;26.932;2023-04-24T03:14:02;8.83;;;6.10;;
7965;SDS011;4028;43.272;26.932;2023-04-24T03:16:27;12.17;;;6.47;;
7965;SDS011;4028;43.272;26.932;2023-04-24T03:18:52;11.87;;;6.17;;
7965;SDS011;4028;43.272;26.932;2023-04-24T03:21:18;9.73;;;6.30;;
7965;SDS011;4028;43.272;26.932;2023-04-24T03:23:44;21.83;;;8.80;;
7965;SDS011;4028;43.272;26.932;2023-04-24T03:26:09;18.30;;;8.33;;
7965;SDS011;4028;43.272;26.932;2023-04-24T03:28:35;16.60;;;8.70;;
7965;SDS011;4028;43.272;26.932;2023-04-24T03:31:00;15.93;;;8.37;;
7965;SDS011;4028;43.272;26.932;2023-04-24T03:33:27;15.13;;;8.53;;
7965;SDS011;4028;43.272;26.932;2023-04-24T03:35:55;17.90;;;9.50;;
7965;SDS011;4028;43.272;26.932;2023-04-24T03:38:21;25.83;;;9.73;;
7965;SDS011;4028;43.272;26.932;2023-04-24T03:40:46;19.10;;;10.00;;
7965;SDS011;4028;43.272;26.932;2023-04-24T03:43:12;16.37;;;10.33;;
7965;SDS011;4028;43.272;26.932;2023-04-24T03:45:37;14.30;;;10.47;;
7965;SDS011;4028;43.272;26.932;2023-04-24T03:48:03;14.87;;;9.93;;
7965;SDS011;4028;43.272;26.932;2023-04-24T03:50:28;21.50;;;11.17;;
7965;SDS011;4028;43.272;26.932;2023-04-24T03:52:54;17.60;;;11.67;;
7965;SDS011;4028;43.272;26.932;2023-04-24T03:55:20;21.43;;;13.20;;
7965;SDS011;4028;43.272;26.932;2023-04-24T03:57:45;23.83;;;13.90;;
7965;SDS011;4028;43.272;26.932;2023-04-24T04:00:11;26.53;;;16.20;;
7965;SDS011;4028;43.272;26.932;2023-04-24T04:02:37;32.80;;;18.37;;
7965;SDS011;4028;43.272;26.932;2023-04-24T04:05:02;38.73;;;18.50;;
7965;SDS011;4028;43.272;26.932;2023-04-24T04:07:28;33.20;;;17.53;;
7965;SDS011;4028;43.272;26.932;2023-04-24T04:09:54;30.67;;;19.27;;
7965;SDS011;4028;43.272;26.932;2023-04-24T04:12:20;32.17;;;18.77;;
7965;SDS011;4028;43.272;26.932;2023-04-24T04:14:45;26.43;;;15.67;;
7965;SDS011;4028;43.272;26.932;2023-04-24T04:17:11;20.30;;;13.87;;
7965;SDS011;4028;43.272;26.932;2023-04-24T04:19:36;27.57;;;14.03;;
7965;SDS011;4028;43.272;26.932;2023-04-24T04:22:02;25.13;;;14.87;;
7965;SDS011;4028;43.272;26.932;2023-04-24T04:24:27;27.33;;;15.10;;
7965;SDS011;4028;43.272;26.932;2023-04-24T04:26:53;21.87;;;14.77;;
7965;SDS011;4028;43.272;26.932;2023-04-24T04:29:21;22.27;;;13.20;;
7965;SDS011;4028;43.272;26.932;2023-04-24T04:31:48;15.97;;;11.90;;
7965;SDS011;4028;43.272;26.932;2023-04-24T04:34:14;16.20;;;10.67;;
7965;SDS011;4028;43.272;26.932;2023-04-24T04:36:40;18.70;;;10.43;;
7965;SDS011;4028;43.272;26.932;2023-04-24T04:39:06;16.27;;;9.60;;
7965;SDS011;4028;43.272;26.932;2023-04-24T04:41:32;17.70;;;11.10;;
7965;SDS011;4028;43.272;26.932;2023-04-24T04:44:00;16.40;;;10.97;;
7965;SDS011;4028;43.272;26.932;2023-04-24T04:46:27;13.07;;;9.77;;
7965;SDS011;4028;43.272;26.932;2023-04-24T04:48:55;15.57;;;10.00;;
7965;SDS011;4028;43.272;26.932;2023-04-24T04:51:21;14.67;;;10.67;;
7965;SDS011;4028;43.272;26.932;2023-04-24T04:53:47;14.30;;;9.67;;
7965;SDS011;4028;43.272;26.932;2023-04-24T04:56:12;16.87;;;8.87;;
7965;SDS011;4028;43.272;26.932;2023-04-24T04:58:38;15.50;;;8.93;;
7965;SDS011;4028;43.272;26.932;2023-04-24T05:01:03;15.50;;;9.37;;
7965;SDS011;4028;43.272;26.932;2023-04-24T05:03:29;11.93;;;9.10;;
7965;SDS011;4028;43.272;26.932;2023-04-24T05:05:54;15.20;;;9.10;;
7965;SDS011;4028;43.272;26.932;2023-04-24T05:08:20;21.90;;;10.43;;
7965;SDS011;4028;43.272;26.932;2023-04-24T05:10:45;15.23;;;9.67;;
7965;SDS011;4028;43.272;26.932;2023-04-24T05:13:11;14.67;;;10.40;;
7965;SDS011;4028;43.272;26.932;2023-04-24T05:15:36;18.50;;;10.03;;
7965;SDS011;4028;43.272;26.932;2023-04-24T05:18:01;13.37;;;10.33;;
7965;SDS011;4028;43.272;26.932;2023-04-24T05:20:28;19.13;;;13.77;;
7965;SDS011;4028;43.272;26.932;2023-04-24T05:22:53;29.10;;;21.67;;
7965;SDS011;4028;43.272;26.932;2023-04-24T05:25:19;21.13;;;12.80;;
7965;SDS011;4028;43.272;26.932;2023-04-24T05:27:44;20.13;;;12.50;;
7965;SDS011;4028;43.272;26.932;2023-04-24T05:30:11;20.90;;;11.87;;
7965;SDS011;4028;43.272;26.932;2023-04-24T05:32:37;18.20;;;10.53;;
7965;SDS011;4028;43.272;26.932;2023-04-24T05:35:02;23.43;;;11.33;;
7965;SDS011;4028;43.272;26.932;2023-04-24T05:37:28;17.43;;;9.77;;
7965;SDS011;4028;43.272;26.932;2023-04-24T05:39:53;16.53;;;9.20;;
7965;SDS011;4028;43.272;26.932;2023-04-24T05:42:19;17.33;;;8.93;;
7965;SDS011;4028;43.272;26.932;2023-04-24T05:44:44;11.33;;;8.67;;
7965;SDS011;4028;43.272;26.932;2023-04-24T05:47:10;13.93;;;8.00;;
7965;SDS011;4028;43.272;26.932;2023-04-24T05:49:36;16.77;;;8.60;;
7965;SDS011;4028;43.272;26.932;2023-04-24T05:52:01;17.60;;;7.70;;
7965;SDS011;4028;43.272;26.932;2023-04-24T05:54:29;20.27;;;7.70;;
7965;SDS011;4028;43.272;26.932;2023-04-24T05:56:54;15.93;;;7.30;;
7965;SDS011;4028;43.272;26.932;2023-04-24T05:59:20;14.33;;;7.47;;
7965;SDS011;4028;43.272;26.932;2023-04-24T06:01:46;11.20;;;6.83;;
7965;SDS011;4028;43.272;26.932;2023-04-24T06:04:12;9.00;;;6.80;;
7965;SDS011;4028;43.272;26.932;2023-04-24T06:06:39;14.60;;;6.93;;
7965;SDS011;4028;43.272;26.932;2023-04-24T06:09:05;14.80;;;6.87;;
7965;SDS011;4028;43.272;26.932;2023-04-24T06:11:30;14.73;;;7.57;;
7965;SDS011;4028;43.272;26.932;2023-04-24T06:13:56;15.37;;;6.30;;
7965;SDS011;4028;43.272;26.932;2023-04-24T06:16:21;8.73;;;6.27;;
7965;SDS011;4028;43.272;26.932;2023-04-24T06:18:46;8.87;;;5.80;;
7965;SDS011;4028;43.272;26.932;2023-04-24T06:21:12;8.98;;;5.40;;
7965;SDS011;4028;43.272;26.932;2023-04-24T06:23:38;10.57;;;5.95;;
7965;SDS011;4028;43.272;26.932;2023-04-24T06:26:03;8.23;;;5.75;;
7965;SDS011;4028;43.272;26.932;2023-04-24T06:28:29;11.13;;;5.20;;
7965;SDS011;4028;43.272;26.932;2023-04-24T06:30:55;8.63;;;4.90;;
7965;SDS011;4028;43.272;26.932;2023-04-24T06:33:20;8.20;;;4.13;;
7965;SDS011;4028;43.272;26.932;2023-04-24T06:35:46;6.18;;;4.60;;
7965;SDS011;4028;43.272;26.932;2023-04-24T06:38:11;6.63;;;4.30;;
7965;SDS011;4028;43.272;26.932;2023-04-24T06:40:37;5.32;;;3.78;;
7965;SDS011;4028;43.272;26.932;2023-04-24T06:43:02;6.20;;;4.85;;
7965;SDS011;4028;43.272;26.932;2023-04-24T06:45:28;4.55;;;4.03;;
7965;SDS011;4028;43.272;26.932;2023-04-24T06:47:54;5.85;;;3.92;;
7965;SDS011;4028;43.272;26.932;2023-04-24T06:50:20;5.63;;;4.15;;
7965;SDS011;4028;43.272;26.932;2023-04-24T06:52:46;6.75;;;4.50;;
7965;SDS011;4028;43.272;26.932;2023-04-24T06:55:12;9.50;;;4.50;;
7965;SDS011;4028;43.272;26.932;2023-04-24T06:57:37;7.07;;;3.97;;
7965;SDS011;4028;43.272;26.932;2023-04-24T07:00:03;5.07;;;4.07;;
7965;SDS011;4028;43.272;26.932;2023-04-24T07:02:30;5.78;;;4.05;;
7965;SDS011;4028;43.272;26.932;2023-04-24T07:04:55;6.13;;;4.05;;
7965;SDS011;4028;43.272;26.932;2023-04-24T07:07:22;7.97;;;3.80;;
7965;SDS011;4028;43.272;26.932;2023-04-24T07:09:48;5.50;;;4.38;;
7965;SDS011;4028;43.272;26.932;2023-04-24T07:12:15;6.35;;;3.72;;
7965;SDS011;4028;43.272;26.932;2023-04-24T07:14:42;4.70;;;3.70;;
7965;SDS011;4028;43.272;26.932;2023-04-24T07:17:08;8.18;;;3.85;;
7965;SDS011;4028;43.272;26.932;2023-04-24T07:19:33;5.43;;;3.90;;
7965;SDS011;4028;43.272;26.932;2023-04-24T07:22:00;3.97;;;3.60;;
7965;SDS011;4028;43.272;26.932;2023-04-24T07:24:26;8.02;;;3.83;;
7965;SDS011;4028;43.272;26.932;2023-04-24T07:26:52;5.53;;;3.72;;
7965;SDS011;4028;43.272;26.932;2023-04-24T07:29:17;8.98;;;4.05;;
7965;SDS011;4028;43.272;26.932;2023-04-24T07:31:44;5.50;;;3.33;;
7965;SDS011;4028;43.272;26.932;2023-04-24T07:34:09;6.32;;;3.10;;
7965;SDS011;4028;43.272;26.932;2023-04-24T07:36:35;6.68;;;3.20;;
7965;SDS011;4028;43.272;26.932;2023-04-24T07:39:03;8.68;;;3.88;;
7965;SDS011;4028;43.272;26.932;2023-04-24T07:41:29;5.07;;;3.20;;
7965;SDS011;4028;43.272;26.932;2023-04-24T07:43:54;10.43;;;3.47;;
7965;SDS011;4028;43.272;26.932;2023-04-24T07:46:20;8.20;;;3.67;;
7965;SDS011;4028;43.272;26.932;2023-04-24T07:48:46;4.00;;;3.05;;
7965;SDS011;4028;43.272;26.932;2023-04-24T07:51:13;6.53;;;3.65;;
7965;SDS011;4028;43.272;26.932;2023-04-24T07:53:39;5.10;;;3.03;;
7965;SDS011;4028;43.272;26.932;2023-04-24T07:56:05;7.90;;;3.20;;
7965;SDS011;4028;43.272;26.932;2023-04-24T07:58:31;4.75;;;3.30;;
7965;SDS011;4028;43.272;26.932;2023-04-24T08:00:56;4.78;;;3.13;;
7965;SDS011;4028;43.272;26.932;2023-04-24T08:03:21;4.25;;;2.78;;
7965;SDS011;4028;43.272;26.932;2023-04-24T08:05:47;4.72;;;3.10;;
7965;SDS011;4028;43.272;26.932;2023-04-24T08:08:13;4.03;;;3.08;;
7965;SDS011;4028;43.272;26.932;2023-04-24T08:10:38;4.68;;;3.15;;
7965;SDS011;4028;43.272;26.932;2023-04-24T08:13:04;6.93;;;3.10;;
7965;SDS011;4028;43.272;26.932;2023-04-24T08:15:30;5.68;;;3.15;;
7965;SDS011;4028;43.272;26.932;2023-04-24T08:17:56;5.75;;;3.08;;
7965;SDS011;4028;43.272;26.932;2023-04-24T08:20:22;4.70;;;3.10;;
7965;SDS011;4028;43.272;26.932;2023-04-24T08:22:47;5.75;;;3.40;;
7965;SDS011;4028;43.272;26.932;2023-04-24T08:25:14;6.10;;;3.10;;
7965;SDS011;4028;43.272;26.932;2023-04-24T08:27:39;5.18;;;3.47;;
7965;SDS011;4028;43.272;26.932;2023-04-24T08:30:05;6.05;;;3.03;;
7965;SDS011;4028;43.272;26.932;2023-04-24T08:32:31;5.40;;;2.88;;
7965;SDS011;4028;43.272;26.932;2023-04-24T08:34:58;6.32;;;3.03;;
7965;SDS011;4028;43.272;26.932;2023-04-24T08:37:25;5.38;;;3.00;;
7965;SDS011;4028;43.272;26.932;2023-04-24T08:39:52;5.70;;;3.28;;
7965;SDS011;4028;43.272;26.932;2023-04-24T08:42:18;5.20;;;3.05;;
7965;SDS011;4028;43.272;26.932;2023-04-24T08:44:44;3.80;;;3.13;;
7965;SDS011;4028;43.272;26.932;2023-04-24T08:47:10;6.82;;;2.88;;
7965;SDS011;4028;43.272;26.932;2023-04-24T08:49:37;9.57;;;3.42;;
7965;SDS011;4028;43.272;26.932;2023-04-24T08:52:04;8.05;;;3.72;;
7965;SDS011;4028;43.272;26.932;2023-04-24T08:54:31;4.00;;;3.30;;
7965;SDS011;4028;43.272;26.932;2023-04-24T08:57:00;11.52;;;5.07;;
7965;SDS011;4028;43.272;26.932;2023-04-24T08:59:29;9.30;;;3.35;;
7965;SDS011;4028;43.272;26.932;2023-04-24T09:01:55;3.83;;;3.22;;
7965;SDS011;4028;43.272;26.932;2023-04-24T09:04:21;5.22;;;3.05;;
7965;SDS011;4028;43.272;26.932;2023-04-24T09:06:49;8.45;;;3.38;;
7965;SDS011;4028;43.272;26.932;2023-04-24T09:09:20;4.97;;;3.17;;
7965;SDS011;4028;43.272;26.932;2023-04-24T09:11:49;5.10;;;3.15;;
7965;SDS011;4028;43.272;26.932;2023-04-24T09:14:15;5.45;;;3.30;;
7965;SDS011;4028;43.272;26.932;2023-04-24T09:16:41;7.13;;;3.78;;
7965;SDS011;4028;43.272;26.932;2023-04-24T09:19:07;7.05;;;3.75;;
7965;SDS011;4028;43.272;26.932;2023-04-24T09:21:33;7.95;;;4.60;;
7965;SDS011;4028;43.272;26.932;2023-04-24T09:24:07;6.70;;;3.55;;
7965;SDS011;4028;43.272;26.932;2023-04-24T09:26:39;7.88;;;3.60;;
7965;SDS011;4028;43.272;26.932;2023-04-24T09:29:05;8.60;;;3.63;;
7965;SDS011;4028;43.272;26.932;2023-04-24T09:31:31;5.40;;;3.40;;
7965;SDS011;4028;43.272;26.932;2023-04-24T09:33:57;8.98;;;3.97;;
7965;SDS011;4028;43.272;26.932;2023-04-24T09:36:28;8.60;;;4.20;;
7965;SDS011;4028;43.272;26.932;2023-04-24T09:39:02;7.53;;;3.75;;
7965;SDS011;4028;43.272;26.932;2023-04-24T09:41:29;7.80;;;3.30;;
7965;SDS011;4028;43.272;26.932;2023-04-24T09:43:55;4.68;;;3.30;;
7965;SDS011;4028;43.272;26.932;2023-04-24T09:46:28;5.93;;;3.55;;
7965;SDS011;4028;43.272;26.932;2023-04-24T09:48:55;5.20;;;3.53;;
7965;SDS011;4028;43.272;26.932;2023-04-24T09:51:32;4.60;;;3.42;;
7965;SDS011;4028;43.272;26.932;2023-04-24T09:54:00;5.00;;;3.22;;
7965;SDS011;4028;43.272;26.932;2023-04-24T09:56:25;12.25;;;4.43;;
7965;SDS011;4028;43.272;26.932;2023-04-24T09:58:51;5.00;;;4.00;;
7965;SDS011;4028;43.272;26.932;2023-04-24T10:01:28;6.32;;;3.72;;
7965;SDS011;4028;43.272;26.932;2023-04-24T10:03:55;3.67;;;3.00;;
7965;SDS011;4028;43.272;26.932;2023-04-24T10:06:20;5.93;;;4.43;;
7965;SDS011;4028;43.272;26.932;2023-04-24T10:08:46;6.68;;;3.83;;
7965;SDS011;4028;43.272;26.932;2023-04-24T10:11:13;7.15;;;3.78;;
7965;SDS011;4028;43.272;26.932;2023-04-24T10:13:39;7.18;;;2.83;;
7965;SDS011;4028;43.272;26.932;2023-04-24T10:16:05;4.70;;;3.15;;
7965;SDS011;4028;43.272;26.932;2023-04-24T10:18:32;4.38;;;3.20;;
7965;SDS011;4028;43.272;26.932;2023-04-24T10:20:59;4.40;;;3.70;;
7965;SDS011;4028;43.272;26.932;2023-04-24T10:23:25;6.35;;;3.05;;
7965;SDS011;4028;43.272;26.932;2023-04-24T10:25:50;5.28;;;3.33;;
7965;SDS011;4028;43.272;26.932;2023-04-24T10:28:17;4.25;;;2.88;;
7965;SDS011;4028;43.272;26.932;2023-04-24T10:30:44;5.75;;;3.40;;
7965;SDS011;4028;43.272;26.932;2023-04-24T10:33:11;4.57;;;3.05;;
7965;SDS011;4028;43.272;26.932;2023-04-24T10:35:39;5.10;;;2.70;;
7965;SDS011;4028;43.272;26.932;2023-04-24T10:38:14;4.35;;;3.17;;
7965;SDS011;4028;43.272;26.932;2023-04-24T10:40:42;3.85;;;2.80;;
7965;SDS011;4028;43.272;26.932;2023-04-24T10:43:08;4.47;;;3.22;;
7965;SDS011;4028;43.272;26.932;2023-04-24T10:45:37;4.82;;;3.15;;
7965;SDS011;4028;43.272;26.932;2023-04-24T10:48:05;3.53;;;3.20;;
7965;SDS011;4028;43.272;26.932;2023-04-24T10:53:13;6.45;;;3.30;;
7965;SDS011;4028;43.272;26.932;2023-04-24T10:55:43;5.85;;;3.92;;
7965;SDS011;4028;43.272;26.932;2023-04-24T10:58:08;5.15;;;3.33;;
7965;SDS011;4028;43.272;26.932;2023-04-24T11:00:36;4.22;;;3.20;;
7965;SDS011;4028;43.272;26.932;2023-04-24T11:03:04;5.38;;;3.22;;
7965;SDS011;4028;43.272;26.932;2023-04-24T11:05:50;3.67;;;2.83;;
7965;SDS011;4028;43.272;26.932;2023-04-24T11:08:27;3.58;;;2.85;;
7965;SDS011;4028;43.272;26.932;2023-04-24T11:10:58;3.72;;;3.10;;
7965;SDS011;4028;43.272;26.932;2023-04-24T11:13:26;3.83;;;2.97;;
7965;SDS011;4028;43.272;26.932;2023-04-24T11:18:45;7.00;;;3.45;;
7965;SDS011;4028;43.272;26.932;2023-04-24T11:21:16;5.53;;;3.33;;
7965;SDS011;4028;43.272;26.932;2023-04-24T11:23:42;3.33;;;2.75;;
7965;SDS011;4028;43.272;26.932;2023-04-24T11:26:10;6.50;;;3.33;;
7965;SDS011;4028;43.272;26.932;2023-04-24T11:28:36;3.95;;;2.75;;
7965;SDS011;4028;43.272;26.932;2023-04-24T11:34:09;4.72;;;3.10;;
7965;SDS011;4028;43.272;26.932;2023-04-24T11:36:37;5.22;;;3.58;;
7965;SDS011;4028;43.272;26.932;2023-04-24T11:39:04;6.22;;;3.00;;
7965;SDS011;4028;43.272;26.932;2023-04-24T11:41:30;3.80;;;3.00;;
7965;SDS011;4028;43.272;26.932;2023-04-24T11:43:56;4.78;;;3.22;;
7965;SDS011;4028;43.272;26.932;2023-04-24T11:46:22;4.97;;;3.00;;
7965;SDS011;4028;43.272;26.932;2023-04-24T11:48:48;4.60;;;3.13;;
7965;SDS011;4028;43.272;26.932;2023-04-24T11:51:13;4.53;;;3.03;;
7965;SDS011;4028;43.272;26.932;2023-04-24T11:53:39;7.28;;;3.33;;
7965;SDS011;4028;43.272;26.932;2023-04-24T11:56:05;8.20;;;3.60;;
7965;SDS011;4028;43.272;26.932;2023-04-24T11:58:37;3.92;;;3.10;;
7965;SDS011;4028;43.272;26.932;2023-04-24T12:01:04;5.15;;;3.08;;
7965;SDS011;4028;43.272;26.932;2023-04-24T12:03:30;6.80;;;4.10;;
7965;SDS011;4028;43.272;26.932;2023-04-24T12:06:06;9.57;;;4.10;;
7965;SDS011;4028;43.272;26.932;2023-04-24T12:08:36;5.00;;;4.53;;
7965;SDS011;4028;43.272;26.932;2023-04-24T12:11:03;7.20;;;4.75;;
7965;SDS011;4028;43.272;26.932;2023-04-24T12:13:30;10.23;;;5.10;;
7965;SDS011;4028;43.272;26.932;2023-04-24T12:15:59;8.20;;;5.32;;
7965;SDS011;4028;43.272;26.932;2023-04-24T12:18:27;9.35;;;5.70;;
7965;SDS011;4028;43.272;26.932;2023-04-24T12:20:52;8.93;;;6.10;;
7965;SDS011;4028;43.272;26.932;2023-04-24T12:23:34;5.60;;;4.80;;
7965;SDS011;4028;43.272;26.932;2023-04-24T12:26:00;8.07;;;4.97;;
7965;SDS011;4028;43.272;26.932;2023-04-24T12:28:34;7.68;;;5.07;;
7965;SDS011;4028;43.272;26.932;2023-04-24T12:31:03;7.10;;;5.25;;
7965;SDS011;4028;43.272;26.932;2023-04-24T12:33:32;5.90;;;4.00;;
7965;SDS011;4028;43.272;26.932;2023-04-24T12:35:58;7.03;;;3.60;;
7965;SDS011;4028;43.272;26.932;2023-04-24T12:38:25;4.60;;;3.80;;
7965;SDS011;4028;43.272;26.932;2023-04-24T12:41:01;6.03;;;3.80;;
7965;SDS011;4028;43.272;26.932;2023-04-24T12:43:34;4.93;;;3.50;;
7965;SDS011;4028;43.272;26.932;2023-04-24T12:46:00;7.43;;;4.38;;
7965;SDS011;4028;43.272;26.932;2023-04-24T12:48:26;4.25;;;3.88;;
7965;SDS011;4028;43.272;26.932;2023-04-24T12:50:52;6.57;;;3.95;;
7965;SDS011;4028;43.272;26.932;2023-04-24T12:53:18;4.88;;;3.05;;
7965;SDS011;4028;43.272;26.932;2023-04-24T12:55:43;3.90;;;3.50;;
7965;SDS011;4028;43.272;26.932;2023-04-24T12:58:10;6.40;;;4.18;;
7965;SDS011;4028;43.272;26.932;2023-04-24T13:00:35;5.18;;;3.78;;
7965;SDS011;4028;43.272;26.932;2023-04-24T13:03:01;5.47;;;4.18;;
7965;SDS011;4028;43.272;26.932;2023-04-24T13:05:28;4.85;;;3.63;;
7965;SDS011;4028;43.272;26.932;2023-04-24T13:07:53;6.22;;;3.58;;
7965;SDS011;4028;43.272;26.932;2023-04-24T13:10:19;4.43;;;3.75;;
7965;SDS011;4028;43.272;26.932;2023-04-24T13:12:44;4.93;;;4.18;;
7965;SDS011;4028;43.272;26.932;2023-04-24T13:15:11;6.57;;;4.28;;
7965;SDS011;4028;43.272;26.932;2023-04-24T13:17:37;4.50;;;4.03;;
7965;SDS011;4028;43.272;26.932;2023-04-24T13:20:02;4.75;;;4.20;;
7965;SDS011;4028;43.272;26.932;2023-04-24T13:22:28;7.43;;;4.95;;
7965;SDS011;4028;43.272;26.932;2023-04-24T13:24:54;6.38;;;4.00;;
7965;SDS011;4028;43.272;26.932;2023-04-24T13:27:19;7.97;;;5.25;;
7965;SDS011;4028;43.272;26.932;2023-04-24T13:29:45;5.90;;;4.53;;
7965;SDS011;4028;43.272;26.932;2023-04-24T13:32:10;6.50;;;4.65;;
7965;SDS011;4028;43.272;26.932;2023-04-24T13:34:36;4.20;;;3.50;;
7965;SDS011;4028;43.272;26.932;2023-04-24T13:37:02;6.43;;;3.65;;
7965;SDS011;4028;43.272;26.932;2023-04-24T13:39:31;7.97;;;3.38;;
7965;SDS011;4028;43.272;26.932;2023-04-24T13:41:57;7.25;;;4.38;;
7965;SDS011;4028;43.272;26.932;2023-04-24T13:44:23;7.05;;;4.38;;
7965;SDS011;4028;43.272;26.932;2023-04-24T13:46:50;13.13;;;4.65;;
7965;SDS011;4028;43.272;26.932;2023-04-24T13:49:19;6.40;;;4.03;;
7965;SDS011;4028;43.272;26.932;2023-04-24T13:51:44;5.65;;;4.60;;
7965;SDS011;4028;43.272;26.932;2023-04-24T13:54:10;4.43;;;4.03;;
7965;SDS011;4028;43.272;26.932;2023-04-24T13:56:36;6.68;;;4.00;;
7965;SDS011;4028;43.272;26.932;2023-04-24T13:59:02;8.65;;;4.18;;
7965;SDS011;4028;43.272;26.932;2023-04-24T14:01:27;5.90;;;4.38;;
7965;SDS011;4028;43.272;26.932;2023-04-24T14:03:53;5.57;;;3.58;;
7965;SDS011;4028;43.272;26.932;2023-04-24T14:06:20;7.35;;;4.75;;
7965;SDS011;4028;43.272;26.932;2023-04-24T14:08:46;8.57;;;4.40;;
7965;SDS011;4028;43.272;26.932;2023-04-24T14:11:12;6.30;;;3.50;;
7965;SDS011;4028;43.272;26.932;2023-04-24T14:13:38;6.30;;;4.03;;
7965;SDS011;4028;43.272;26.932;2023-04-24T14:16:05;6.13;;;4.25;;
7965;SDS011;4028;43.272;26.932;2023-04-24T14:18:31;6.22;;;3.90;;
7965;SDS011;4028;43.272;26.932;2023-04-24T14:20:56;5.72;;;3.55;;
7965;SDS011;4028;43.272;26.932;2023-04-24T14:23:22;6.30;;;3.65;;
7965;SDS011;4028;43.272;26.932;2023-04-24T14:25:48;7.38;;;3.92;;
7965;SDS011;4028;43.272;26.932;2023-04-24T14:28:16;10.35;;;4.50;;
7965;SDS011;4028;43.272;26.932;2023-04-24T14:30:43;7.25;;;3.88;;
7965;SDS011;4028;43.272;26.932;2023-04-24T14:33:08;7.20;;;3.63;;
7965;SDS011;4028;43.272;26.932;2023-04-24T14:35:34;6.25;;;3.65;;
7965;SDS011;4028;43.272;26.932;2023-04-24T14:38:00;6.03;;;3.80;;
7965;SDS011;4028;43.272;26.932;2023-04-24T14:40:25;4.47;;;4.07;;
7965;SDS011;4028;43.272;26.932;2023-04-24T14:42:51;4.75;;;3.72;;
7965;SDS011;4028;43.272;26.932;2023-04-24T14:45:16;10.57;;;4.20;;
7965;SDS011;4028;43.272;26.932;2023-04-24T14:47:42;6.47;;;3.40;;
7965;SDS011;4028;43.272;26.932;2023-04-24T14:50:08;11.85;;;4.82;;
7965;SDS011;4028;43.272;26.932;2023-04-24T14:52:33;9.13;;;3.78;;
7965;SDS011;4028;43.272;26.932;2023-04-24T14:55:00;5.22;;;4.07;;
7965;SDS011;4028;43.272;26.932;2023-04-24T14:57:25;6.00;;;3.80;;
7965;SDS011;4028;43.272;26.932;2023-04-24T14:59:51;7.00;;;4.18;;